Terminal Aerodrome Forecast
Issued by NWS

Home | Current Version | Previous Version | Text Only | Print | Product List | Glossary On
Versions: 1 2 3 4 5 6 7 8 9 10 11 12 13 14 15 16 17 18 19
000
FTUS43 KFGF 221300 AAA
TAFDVL
TAF AMD
KDVL 221325Z 2213/2312 18015G21KT P6SM VCSH SCT120 BKN150
     FM221900 25014KT P6SM VCSH BKN060
     FM222100 25012KT P6SM BKN050
      AMD LTD TO CLD VIS AND WIND=

USA.gov is the U.S. government's official web portal to all federal, state and local government web resources and services.